Time;durP1;ratioP1;P1;durP2;ratioP2;P2;SDS_P1;SDS_P2;PMS_P1;PMS_P2;Temp;Humidity;BMP_temperature;BMP_pressure;BME280_temperature;BME280_humidity;BME280_pressure;Samples;Min_cycle;Max_cycle;Signal;HPM_P1;HPM_P2
2022/09/14 00:01:20;;;;;;;7.57;2.35;;;;;;;22.56;48.90;100726.28;5080671;28;20304;-65
2022/09/14 00:03:59;;;;;;;6.88;1.90;;;;;;;22.54;48.74;100720.16;5075408;28;20055;-65
2022/09/14 00:06:27;;;;;;;6.18;2.03;;;;;;;22.50;48.68;100721.56;5093743;28;20563;-65
2022/09/14 00:08:57;;;;;;;7.90;1.92;;;;;;;22.49;48.92;100717.13;5093716;28;20074;-66
2022/09/14 00:11:26;;;;;;;7.20;2.83;;;;;;;22.49;48.83;100714.41;5084770;28;20032;-65
2022/09/14 00:13:57;;;;;;;6.53;1.92;;;;;;;22.48;49.04;100710.81;5073178;28;20513;-66
2022/09/14 00:16:29;;;;;;;6.18;2.00;;;;;;;22.49;48.81;100711.66;5073300;28;20556;-65
2022/09/14 00:18:59;;;;;;;9.55;1.90;;;;;;;22.50;48.93;100703.25;5073225;28;20502;-65
2022/09/14 00:21:27;;;;;;;6.07;2.22;;;;;;;22.49;48.85;100708.94;5080810;28;20078;-65
2022/09/14 00:23:57;;;;;;;6.68;2.08;;;;;;;22.46;48.76;100703.84;5093345;28;20044;-65
2022/09/14 00:26:25;;;;;;;8.40;2.00;;;;;;;22.41;48.92;100696.19;5093267;28;20093;-65
2022/09/14 00:28:55;;;;;;;4.72;2.15;;;;;;;22.37;49.00;100691.28;5093158;28;20493;-65
2022/09/14 00:31:23;;;;;;;6.22;2.28;;;;;;;22.35;49.08;100687.91;5082792;28;20087;-64
2022/09/14 00:33:53;;;;;;;7.60;2.25;;;;;;;22.32;49.38;100691.84;5072760;28;20078;-66
2022/09/14 00:36:23;;;;;;;8.30;2.20;;;;;;;22.31;49.00;100679.22;5072991;28;20051;-66
2022/09/14 00:38:50;;;;;;;6.03;2.03;;;;;;;22.27;49.48;100675.13;5072878;28;20116;-65
2022/09/14 00:41:20;;;;;;;5.80;2.40;;;;;;;22.27;49.38;100675.13;5080761;28;20101;-65
2022/09/14 00:44:27;;;;;;;7.75;2.47;;;;;;;22.24;49.39;100672.78;5092839;28;20048;-66
2022/09/14 00:46:55;;;;;;;;;;;;;;;22.28;49.36;100675.97;4991420;28;20050;-65
2022/09/14 00:49:36;;;;;;;7.03;2.17;;;;;;;22.28;49.55;100665.03;4990882;28;19972;-66
2022/09/14 00:52:17;;;;;;;4.65;1.95;;;;;;;22.24;49.29;100664.56;5028746;28;20102;-65
2022/09/14 00:54:50;;;;;;;7.70;1.90;;;;;;;22.22;49.44;100663.91;5072621;28;20088;-65
2022/09/14 00:57:18;;;;;;;5.88;2.10;;;;;;;22.20;49.66;100661.34;5072512;28;20097;-65
2022/09/14 00:59:47;;;;;;;7.95;2.35;;;;;;;22.19;49.68;100665.13;5072380;28;20041;-66
2022/09/14 01:02:14;;;;;;;7.05;2.22;;;;;;;22.17;49.73;100661.75;5072227;28;20036;-65
2022/09/14 01:04:43;;;;;;;6.20;2.42;;;;;;;22.17;49.95;100653.53;5072347;28;20502;-66
2022/09/14 01:07:32;;;;;;;4.97;2.33;;;;;;;22.15;50.00;100650.13;5072605;28;20045;-66
2022/09/14 01:10:07;;;;;;;7.03;2.42;;;;;;;22.14;49.97;100647.59;5071003;28;20110;-66
2022/09/14 01:12:51;;;;;;;;;;;;;;;22.11;50.14;100645.22;5088644;28;20075;-66
2022/09/14 01:15:52;;;;;;;9.40;3.58;;;;;;;22.09;49.96;100636.38;5072059;28;19973;-65
2022/09/14 01:18:37;;;;;;;7.60;2.33;;;;;;;22.04;50.28;100634.19;5088651;28;20502;-66
2022/09/14 01:21:10;;;;;;;4.53;1.92;;;;;;;21.99;50.12;100631.16;5092178;28;20036;-65
2022/09/14 01:23:58;;;;;;;5.70;1.95;;;;;;;21.94;50.12;100635.50;5092560;28;20036;-66
2022/09/14 01:26:54;;;;;;;5.72;2.08;;;;;;;21.89;50.64;100634.16;5074015;28;20044;-66
2022/09/14 01:29:46;;;;;;;5.13;2.30;;;;;;;21.86;50.45;100629.06;5061056;28;20099;-66
2022/09/14 01:32:20;;;;;;;5.93;2.40;;;;;;;21.82;50.51;100629.63;5071795;28;20102;-65
2022/09/14 01:35:34;;;;;;;5.70;2.35;;;;;;;21.75;50.90;100623.22;5072254;28;20157;-66
2022/09/14 01:38:18;;;;;;;6.45;2.08;;;;;;;21.69;50.87;100626.69;5068081;28;20098;-66
2022/09/14 01:40:48;;;;;;;4.55;1.88;;;;;;;21.64;51.19;100623.69;5071414;28;20098;-65
2022/09/14 01:43:47;;;;;;;6.53;2.47;;;;;;;21.56;51.27;100620.00;5071432;28;20094;-66
2022/09/14 01:46:19;;;;;;;5.85;2.40;;;;;;;21.55;51.19;100612.81;5053193;28;20056;-66
2022/09/14 01:48:56;;;;;;;6.68;2.25;;;;;;;21.50;51.11;100604.31;5071809;28;20093;-65
2022/09/14 01:51:35;;;;;;;7.38;2.70;;;;;;;21.45;51.54;100604.00;5071612;28;20082;-65
2022/09/14 01:54:27;;;;;;;6.60;2.30;;;;;;;21.39;51.58;100612.94;5071458;28;20044;-66
2022/09/14 01:57:07;;;;;;;7.68;2.75;;;;;;;21.36;51.46;100617.94;5071336;28;20517;-65
2022/09/14 01:59:42;;;;;;;6.88;1.90;;;;;;;21.34;51.75;100620.84;5071345;28;20052;-65
2022/09/14 02:02:13;;;;;;;5.85;2.28;;;;;;;21.33;51.71;100627.34;5071731;28;20094;-65
2022/09/14 02:05:07;;;;;;;3.85;2.17;;;;;;;21.32;51.87;100622.06;5073886;28;20055;-65
2022/09/14 02:07:36;;;;;;;5.65;1.90;;;;;;;21.30;51.72;100616.78;5091685;28;20137;-65
2022/09/14 02:10:08;;;;;;;7.85;1.70;;;;;;;21.28;52.33;100610.66;5091614;28;20047;-65
2022/09/14 02:12:35;;;;;;;5.00;1.70;;;;;;;21.25;52.44;100606.41;5091516;28;20083;-65
2022/09/14 02:15:06;;;;;;;5.57;2.10;;;;;;;21.25;52.27;100613.75;5090431;28;20040;-65
2022/09/14 02:17:33;;;;;;;5.20;2.17;;;;;;;21.25;52.50;100605.56;5091659;28;20052;-65
2022/09/14 02:20:03;;;;;;;5.22;2.20;;;;;;;21.23;52.25;100605.75;5091361;28;20733;-65
2022/09/14 02:22:30;;;;;;;5.35;2.00;;;;;;;21.21;52.68;100604.22;5090694;28;20097;-65
2022/09/14 02:24:58;;;;;;;4.72;1.98;;;;;;;21.18;52.49;100605.44;5086500;28;20047;-65
2022/09/14 02:27:25;;;;;;;7.90;2.33;;;;;;;21.18;52.95;100599.97;5070958;28;20041;-65
2022/09/14 02:29:52;;;;;;;7.43;1.90;;;;;;;21.18;53.03;100605.44;5071031;28;20196;-65
2022/09/14 02:32:19;;;;;;;6.22;2.30;;;;;;;21.18;53.06;100615.50;5071105;28;20101;-65
2022/09/14 02:35:22;;;;;;;6.05;2.47;;;;;;;21.17;53.47;100616.53;5087757;28;20094;-65
2022/09/14 02:38:28;;;;;;;11.25;2.20;;;;;;;21.16;53.23;100612.09;5091065;28;20036;-65
2022/09/14 02:41:15;;;;;;;4.35;2.20;;;;;;;21.16;53.27;100610.22;5091003;28;20494;-65
2022/09/14 02:43:58;;;;;;;5.65;2.17;;;;;;;21.16;53.46;100612.09;5083156;28;20048;-64
2022/09/14 02:46:33;;;;;;;5.85;2.15;;;;;;;21.13;53.74;100610.59;5070820;28;20453;-65
2022/09/14 02:49:14;;;;;;;6.32;2.50;;;;;;;21.10;53.69;100613.69;5070996;28;20090;-64
2022/09/14 02:52:00;;;;;;;7.38;2.50;;;;;;;21.08;53.66;100613.03;5070648;28;20032;-65
2022/09/14 02:54:36;;;;;;;5.85;2.45;;;;;;;21.10;54.07;100612.84;5083678;28;20040;-65
2022/09/14 02:57:03;;;;;;;5.38;2.28;;;;;;;21.12;53.83;100610.78;5090049;28;20139;-64
2022/09/14 02:59:30;;;;;;;6.03;2.45;;;;;;;21.09;53.92;100614.72;5090967;28;20044;-64
2022/09/14 03:01:59;;;;;;;6.22;2.60;;;;;;;21.09;54.31;100616.59;5090665;28;20044;-65
2022/09/14 03:04:27;;;;;;;6.88;2.63;;;;;;;21.06;54.43;100612.34;5074662;28;20470;-64
2022/09/14 03:06:54;;;;;;;5.10;2.33;;;;;;;21.03;54.17;100610.00;5070674;28;20094;-64
2022/09/14 03:09:20;;;;;;;6.00;2.10;;;;;;;21.02;54.25;100615.63;5070693;28;20556;-65
2022/09/14 03:11:47;;;;;;;12.13;2.20;;;;;;;20.99;54.27;100614.13;5069990;28;20048;-64
2022/09/14 03:14:17;;;;;;;5.38;1.92;;;;;;;20.96;54.45;100614.47;5083234;28;20432;-64
2022/09/14 03:16:44;;;;;;;4.00;2.10;;;;;;;20.95;54.42;100615.50;5090848;28;20478;-65
2022/09/14 03:19:11;;;;;;;4.35;2.13;;;;;;;20.91;54.54;100614.19;5069170;28;20102;-64
2022/09/14 03:21:38;;;;;;;5.70;2.10;;;;;;;20.89;54.42;100616.25;5070070;28;20053;-64
2022/09/14 03:24:05;;;;;;;4.00;2.08;;;;;;;20.88;54.43;100609.09;5055421;28;20041;-64
2022/09/14 03:26:35;;;;;;;4.43;1.83;;;;;;;20.86;54.69;100611.13;5050371;28;20115;-64
2022/09/14 03:29:03;;;;;;;5.43;1.85;;;;;;;20.82;54.85;100599.72;5050529;28;20490;-65
2022/09/14 03:31:30;;;;;;;7.85;2.10;;;;;;;20.80;54.78;100603.66;5050311;28;20045;-64
2022/09/14 03:34:01;;;;;;;6.40;2.00;;;;;;;20.75;54.77;100592.41;5065396;28;20041;-64
2022/09/14 03:36:30;;;;;;;6.60;2.40;;;;;;;20.72;54.77;100596.38;5074098;28;20045;-65
2022/09/14 03:39:00;;;;;;;4.93;2.03;;;;;;;20.68;55.00;100589.56;5074209;28;20449;-64
2022/09/14 03:41:27;;;;;;;6.10;2.25;;;;;;;20.66;54.66;100588.91;5067148;28;20041;-64
2022/09/14 03:43:56;;;;;;;7.88;1.95;;;;;;;20.63;55.11;100584.66;5053934;28;20037;-65
2022/09/14 03:46:24;;;;;;;8.48;2.47;;;;;;;20.62;55.05;100582.09;5054271;28;20540;-65
2022/09/14 03:48:52;;;;;;;6.05;2.28;;;;;;;20.61;55.32;100581.25;5053814;28;20049;-65
2022/09/14 03:51:19;;;;;;;8.68;2.05;;;;;;;20.59;55.07;100574.28;5072284;28;20169;-64
2022/09/14 03:53:47;;;;;;;5.57;2.22;;;;;;;20.58;55.33;100569.84;5073590;28;20104;-65
2022/09/14 03:56:16;;;;;;;6.45;1.95;;;;;;;20.55;54.99;100559.31;5073666;28;20082;-64
2022/09/14 03:58:45;;;;;;;5.18;1.60;;;;;;;20.55;55.19;100567.50;5073622;28;20102;-64
2022/09/14 04:01:14;;;;;;;5.00;1.85;;;;;;;20.54;55.24;100565.78;5051213;28;20107;-64
2022/09/14 04:03:43;;;;;;;5.35;2.08;;;;;;;20.51;55.46;100557.97;5053533;28;20044;-64
2022/09/14 04:06:10;;;;;;;7.72;2.22;;;;;;;20.49;55.17;100563.59;5053328;28;20045;-64
2022/09/14 04:08:39;;;;;;;5.05;1.98;;;;;;;20.49;55.41;100555.41;5053582;28;20094;-64
2022/09/14 04:11:10;;;;;;;5.22;2.45;;;;;;;20.48;55.49;100548.25;5071970;28;20098;-65
2022/09/14 04:13:42;;;;;;;5.65;2.60;;;;;;;20.48;55.43;100550.16;5073284;28;20047;-65
2022/09/14 04:16:08;;;;;;;6.00;2.70;;;;;;;20.49;55.53;100549.97;5073311;28;20040;-64
2022/09/14 04:18:35;;;;;;;3.40;2.45;;;;;;;20.49;55.75;100547.22;5086491;28;20028;-64
2022/09/14 04:21:05;;;;;;;4.28;2.00;;;;;;;20.46;55.40;100542.13;5092492;28;20085;-64
2022/09/14 04:23:37;;;;;;;7.60;3.00;;;;;;;20.45;55.56;100536.88;5075617;28;20040;-65
2022/09/14 04:26:28;;;;;;;7.35;2.40;;;;;;;20.43;55.39;100528.88;5093160;28;20489;-64
2022/09/14 04:28:56;;;;;;;8.07;2.60;;;;;;;20.39;55.25;100534.81;5089991;28;20093;-65
2022/09/14 04:31:23;;;;;;;5.38;2.03;;;;;;;20.34;55.55;100531.78;5073150;28;20040;-65
2022/09/14 04:33:55;;;;;;;5.07;2.25;;;;;;;20.30;55.54;100523.97;5083753;28;20494;-64
2022/09/14 04:36:27;;;;;;;5.47;2.22;;;;;;;20.29;55.52;100516.81;5083723;28;20067;-64
2022/09/14 04:38:56;;;;;;;5.47;2.25;;;;;;;20.29;55.53;100515.97;5072780;28;20040;-64
2022/09/14 04:41:23;;;;;;;6.75;2.33;;;;;;;20.29;55.67;100511.34;5072854;28;20087;-65
2022/09/14 04:43:55;;;;;;;6.78;1.88;;;;;;;20.29;55.72;100527.72;5072478;28;20036;-65
2022/09/14 04:46:24;;;;;;;4.97;2.08;;;;;;;20.27;55.56;100523.47;5080907;28;20036;-64
2022/09/14 04:48:51;;;;;;;2.67;1.55;;;;;;;20.28;55.85;100528.75;5092835;28;20048;-65
2022/09/14 04:51:24;;;;;;;6.65;2.25;;;;;;;20.28;56.00;100526.03;5092789;28;20040;-65
2022/09/14 04:54:01;;;;;;;5.18;1.70;;;;;;;20.27;55.78;100524.31;5092874;28;20498;-64
2022/09/14 04:56:31;;;;;;;4.85;1.80;;;;;;;20.28;55.81;100517.00;5083191;28;20086;-65
2022/09/14 04:58:59;;;;;;;7.15;2.20;;;;;;;20.29;55.91;100515.97;5072490;28;20402;-65
2022/09/14 05:01:32;;;;;;;4.45;2.15;;;;;;;20.27;55.68;100518.03;5072323;28;20114;-65
2022/09/14 05:03:59;;;;;;;5.65;2.33;;;;;;;20.28;55.61;100509.66;5072391;28;20268;-65
2022/09/14 05:06:28;;;;;;;5.28;2.15;;;;;;;20.28;56.01;100512.38;5079808;28;20052;-65
2022/09/14 05:08:56;;;;;;;3.70;1.83;;;;;;;20.29;56.08;100510.50;5092528;28;20498;-65
2022/09/14 05:11:25;;;;;;;7.10;2.17;;;;;;;20.27;56.24;100510.69;5092332;28;20039;-65
2022/09/14 05:13:57;;;;;;;4.68;1.90;;;;;;;20.26;55.93;100511.72;5092536;28;20490;-65
2022/09/14 05:16:27;;;;;;;5.63;2.00;;;;;;;20.27;56.08;100510.69;5090558;28;20043;-65
2022/09/14 05:18:56;;;;;;;6.28;1.77;;;;;;;20.27;56.22;100512.56;5092343;28;20040;-65
2022/09/14 05:21:23;;;;;;;3.65;1.88;;;;;;;20.25;55.97;100518.19;5092236;28;20133;-65
2022/09/14 05:23:57;;;;;;;5.43;2.30;;;;;;;20.24;56.49;100518.38;5088869;28;20040;-65
2022/09/14 05:26:26;;;;;;;4.85;1.92;;;;;;;20.25;56.22;100520.09;5071845;28;20056;-65
2022/09/14 05:28:54;;;;;;;5.05;1.95;;;;;;;20.27;56.14;100515.28;5071847;28;20094;-65
2022/09/14 05:31:22;;;;;;;6.78;2.25;;;;;;;20.31;56.34;100516.63;5072019;28;20036;-65
2022/09/14 05:33:53;;;;;;;5.30;2.00;;;;;;;20.33;56.12;100513.72;5073595;28;20097;-65
2022/09/14 05:36:20;;;;;;;6.25;2.30;;;;;;;20.32;56.44;100507.44;5091645;28;20498;-65
2022/09/14 05:38:47;;;;;;;5.82;2.20;;;;;;;20.30;56.45;100512.22;5092086;28;20036;-65
2022/09/14 05:41:15;;;;;;;5.82;1.88;;;;;;;20.27;56.52;100510.69;5091928;28;20048;-65
2022/09/14 05:43:45;;;;;;;6.40;2.30;;;;;;;20.27;56.50;100518.88;5090435;28;20063;-66
2022/09/14 05:46:15;;;;;;;4.55;2.20;;;;;;;20.25;56.67;100514.63;5071360;28;20410;-65
2022/09/14 05:48:42;;;;;;;3.53;2.00;;;;;;;20.24;56.79;100515.66;5071543;28;20083;-65
2022/09/14 05:51:16;;;;;;;2.85;1.63;;;;;;;20.25;56.78;100522.81;5070264;28;20131;-65
2022/09/14 05:53:54;;;;;;;5.85;2.63;;;;;;;20.25;56.86;100523.66;5073108;28;20048;-63
2022/09/14 05:56:23;;;;;;;3.40;1.83;;;;;;;20.25;56.75;100531.84;5071161;28;20098;-65
2022/09/14 05:58:50;;;;;;;4.15;1.90;;;;;;;20.26;56.41;100532.69;5071736;28;20090;-65
2022/09/14 06:01:20;;;;;;;3.55;2.08;;;;;;;20.26;56.81;100529.97;5071471;28;20040;-65
2022/09/14 06:03:56;;;;;;;6.57;2.28;;;;;;;20.26;56.72;100533.53;5071920;28;20040;-65
2022/09/14 06:06:23;;;;;;;5.05;2.47;;;;;;;20.29;56.79;100535.91;5070538;28;20588;-65
2022/09/14 06:08:54;;;;;;;7.63;2.17;;;;;;;20.27;56.72;100537.97;5071234;28;20399;-64
2022/09/14 06:11:24;;;;;;;12.00;2.95;;;;;;;20.25;57.00;100536.44;5079128;28;20039;-64
2022/09/14 06:13:54;;;;;;;7.43;2.78;;;;;;;20.23;56.83;100528.44;5083741;28;20028;-64
2022/09/14 06:16:24;;;;;;;8.68;2.53;;;;;;;20.24;57.08;100540.19;5081799;28;20105;-64
2022/09/14 06:18:54;;;;;;;5.30;1.77;;;;;;;20.25;57.27;100542.75;5081594;28;20406;-64
2022/09/14 06:21:21;;;;;;;6.93;2.40;;;;;;;20.25;56.91;100534.56;5079073;28;20071;-65
2022/09/14 06:23:52;;;;;;;6.60;2.10;;;;;;;20.26;57.22;100543.59;5088431;28;20062;-64
2022/09/14 06:26:19;;;;;;;5.72;1.80;;;;;;;20.23;57.01;100530.31;5070997;28;20101;-65
2022/09/14 06:28:46;;;;;;;6.57;2.10;;;;;;;20.23;57.38;100538.50;5071083;28;20415;-65
2022/09/14 06:31:14;;;;;;;6.15;2.10;;;;;;;20.23;57.07;100528.44;5053397;28;20106;-65
2022/09/14 06:33:43;;;;;;;7.80;2.15;;;;;;;20.24;57.24;100523.84;5071183;28;20037;-65
2022/09/14 06:36:13;;;;;;;4.22;2.10;;;;;;;20.24;56.96;100516.50;5089727;28;20060;-65
2022/09/14 06:38:40;;;;;;;5.28;2.17;;;;;;;20.24;57.27;100516.50;5091258;28;20452;-65
2022/09/14 06:41:09;;;;;;;5.10;2.25;;;;;;;20.25;57.00;100517.34;5091094;28;20097;-64
2022/09/14 06:43:39;;;;;;;6.32;2.22;;;;;;;20.24;57.08;100518.38;5078198;28;20045;-65
2022/09/14 06:46:10;;;;;;;5.90;2.75;;;;;;;20.23;57.18;100513.97;5070754;28;20072;-64
2022/09/14 06:48:40;;;;;;;6.50;2.53;;;;;;;20.22;57.38;100521.28;5070938;28;20048;-64
2022/09/14 06:51:31;;;;;;;6.95;3.03;;;;;;;20.24;57.25;100518.38;5070863;28;20045;-64
2022/09/14 06:54:01;;;;;;;6.97;2.45;;;;;;;20.28;57.38;100512.38;5060185;28;20510;-63
2022/09/14 06:56:31;;;;;;;5.80;2.70;;;;;;;20.31;57.23;100513.91;5070746;28;20072;-64
2022/09/14 06:58:58;;;;;;;4.97;2.53;;;;;;;20.36;57.59;100516.09;5070860;28;20055;-64
2022/09/14 07:01:25;;;;;;;3.83;2.42;;;;;;;20.41;57.73;100514.56;5073272;28;20097;-64
2022/09/14 07:03:57;;;;;;;3.95;2.60;;;;;;;20.44;57.86;100524.25;5083823;28;20040;-64
2022/09/14 07:06:26;;;;;;;7.32;3.03;;;;;;;20.47;57.49;100518.44;5090949;28;20032;-64
2022/09/14 07:08:53;;;;;;;7.28;3.42;;;;;;;20.48;57.76;100515.53;5094279;28;20048;-64
2022/09/14 07:11:22;;;;;;;10.45;3.30;;;;;;;20.49;57.80;100514.50;5082945;28;20075;-64
2022/09/14 07:13:54;;;;;;;6.13;2.97;;;;;;;20.49;57.65;100519.09;5074702;28;20040;-64
2022/09/14 07:16:20;;;;;;;6.00;2.90;;;;;;;20.50;57.64;100523.53;5074487;28;20040;-64
2022/09/14 07:18:47;;;;;;;7.72;3.60;;;;;;;20.50;57.68;100523.53;5074272;28;20036;-64
2022/09/14 07:21:16;;;;;;;7.78;3.00;;;;;;;20.49;57.43;100528.13;5074654;28;20033;-63
2022/09/14 07:23:47;;;;;;;5.70;2.97;;;;;;;20.45;57.26;100528.69;5075341;28;20040;-64
2022/09/14 07:26:28;;;;;;;5.57;2.85;;;;;;;20.43;57.56;100528.00;5073883;28;20563;-64
2022/09/14 07:28:58;;;;;;;6.45;2.63;;;;;;;20.43;57.47;100523.41;5074489;28;20063;-65
2022/09/14 07:31:37;;;;;;;7.25;2.90;;;;;;;20.43;57.60;100522.56;5074374;28;20049;-65
2022/09/14 07:34:05;;;;;;;6.93;3.35;;;;;;;20.44;57.66;100519.66;5087418;28;20036;-63
2022/09/14 07:36:33;;;;;;;5.22;2.58;;;;;;;20.43;57.36;100507.03;5094313;28;20516;-64
2022/09/14 07:39:03;;;;;;;5.50;2.80;;;;;;;20.43;57.45;100512.50;5094365;28;20106;-65
2022/09/14 07:41:32;;;;;;;8.27;3.38;;;;;;;20.44;57.62;100511.47;5093872;28;20532;-64
2022/09/14 07:44:05;;;;;;;4.38;2.95;;;;;;;20.44;58.02;100502.44;5092538;28;20051;-64
2022/09/14 07:46:38;;;;;;;6.05;3.33;;;;;;;20.44;57.96;100499.72;5093844;28;20039;-64
2022/09/14 07:49:05;;;;;;;7.82;3.40;;;;;;;20.44;57.71;100502.44;5094116;28;20069;-64
2022/09/14 07:51:33;;;;;;;7.40;3.00;;;;;;;20.44;57.54;100494.25;5086333;28;20036;-64
2022/09/14 07:54:04;;;;;;;6.15;3.10;;;;;;;20.44;57.94;100491.53;5080251;28;20071;-64
2022/09/14 07:56:30;;;;;;;7.47;3.42;;;;;;;20.44;57.79;100491.53;5073183;28;20040;-64
2022/09/14 07:58:58;;;;;;;5.90;3.15;;;;;;;20.43;58.08;100500.75;5072630;28;20044;-64
2022/09/14 08:01:45;;;;;;;9.30;3.85;;;;;;;20.43;58.13;100504.31;5072912;28;20288;-65
2022/09/14 08:04:16;;;;;;;5.28;2.90;;;;;;;20.43;58.03;100501.59;5073667;28;20056;-67
2022/09/14 08:06:43;;;;;;;9.18;3.15;;;;;;;20.43;57.75;100500.75;5073527;28;20469;-64
2022/09/14 08:09:10;;;;;;;6.35;2.40;;;;;;;20.42;58.00;100505.34;5073047;28;20152;-64
2022/09/14 08:11:37;;;;;;;5.53;3.10;;;;;;;20.42;58.05;100497.16;5073158;28;20570;-65
2022/09/14 08:14:10;;;;;;;10.05;3.10;;;;;;;20.42;57.90;100497.16;5073466;28;20079;-64
2022/09/14 08:16:39;;;;;;;4.93;3.10;;;;;;;20.44;58.07;100495.09;5074076;28;20054;-64
2022/09/14 08:19:11;;;;;;;8.10;3.28;;;;;;;20.44;58.26;100495.09;5086056;28;20032;-64
2022/09/14 08:21:38;;;;;;;5.05;3.08;;;;;;;20.45;58.20;100498.69;5079181;28;20135;-64
2022/09/14 08:24:12;;;;;;;4.57;3.30;;;;;;;20.49;58.26;100498.13;5073189;28;20477;-64
2022/09/14 08:26:41;;;;;;;7.95;3.53;;;;;;;20.51;58.11;100490.63;5073147;28;20131;-64
2022/09/14 08:29:08;;;;;;;7.38;3.55;;;;;;;20.53;57.98;100487.69;5073114;28;20059;-64
2022/09/14 08:31:37;;;;;;;6.22;3.17;;;;;;;20.50;57.92;100491.63;5072775;28;20068;-64
2022/09/14 08:34:07;;;;;;;6.30;3.10;;;;;;;20.46;58.01;100492.19;5072755;28;20099;-64
2022/09/14 08:36:37;;;;;;;8.10;3.58;;;;;;;20.43;57.71;100490.69;5089332;28;20052;-64
2022/09/14 08:39:08;;;;;;;6.15;3.10;;;;;;;20.42;58.18;100494.44;5093214;28;20050;-64
2022/09/14 08:41:40;;;;;;;5.20;2.97;;;;;;;20.44;58.25;100488.78;5074953;28;20052;-64
2022/09/14 08:44:19;;;;;;;5.35;3.30;;;;;;;20.47;58.16;100493.88;5092964;28;20076;-65
2022/09/14 08:47:11;;;;;;;9.50;3.55;;;;;;;20.51;58.17;100497.94;5092098;28;20593;-64
2022/09/14 08:50:08;;;;;;;6.32;3.55;;;;;;;20.52;58.24;100491.47;5055194;28;20122;-65
2022/09/14 08:52:44;;;;;;;9.27;3.95;;;;;;;20.48;57.94;100493.72;5092411;28;20048;-64
2022/09/14 08:55:48;;;;;;;6.03;3.67;;;;;;;20.46;58.07;100487.59;5092918;28;20048;-64
2022/09/14 08:58:33;;;;;;;5.18;3.28;;;;;;;20.46;58.04;100493.03;5075959;28;20102;-64
2022/09/14 09:01:36;;;;;;;7.18;3.20;;;;;;;20.46;57.94;100494.91;5072179;28;20072;-64
2022/09/14 09:04:14;;;;;;;7.45;3.88;;;;;;;20.46;58.23;100501.22;5083264;28;20126;-64
2022/09/14 09:06:53;;;;;;;6.32;3.80;;;;;;;20.48;58.01;100504.63;5072067;28;20052;-65
2022/09/14 09:09:36;;;;;;;6.15;3.75;;;;;;;20.54;58.30;100503.03;5080998;28;20040;-65
2022/09/14 09:12:04;;;;;;;7.68;4.13;;;;;;;20.60;58.42;100507.78;5092635;28;20040;-65
2022/09/14 09:14:38;;;;;;;9.95;4.30;;;;;;;20.63;57.95;100516.44;5092107;28;20044;-65
2022/09/14 09:17:25;;;;;;;10.17;4.00;;;;;;;20.65;58.37;100508.06;5092360;28;20046;-64
2022/09/14 09:19:59;;;;;;;7.80;4.30;;;;;;;20.69;58.31;100501.22;5092095;28;20290;-66
2022/09/14 09:22:32;;;;;;;7.63;4.00;;;;;;;20.70;58.31;100508.38;5075511;28;20123;-66
2022/09/14 09:25:02;;;;;;;9.98;3.75;;;;;;;20.72;58.17;100505.47;5071828;28;20143;-66
2022/09/14 09:27:28;;;;;;;6.85;3.60;;;;;;;20.73;58.07;100513.47;5088258;28;20144;-67
2022/09/14 09:29:54;;;;;;;13.60;3.40;;;;;;;20.78;58.25;100513.75;5071916;28;20036;-68
2022/09/14 09:32:25;;;;;;;9.88;3.65;;;;;;;20.84;58.05;100514.94;5068861;28;20039;-66
2022/09/14 09:35:18;;;;;;;8.85;3.65;;;;;;;20.87;57.99;100518.16;5091602;28;20133;-66
2022/09/14 09:37:54;;;;;;;7.93;3.33;;;;;;;20.90;58.17;100515.06;5062929;28;20072;-65
2022/09/14 09:40:36;;;;;;;8.80;3.70;;;;;;;20.88;58.27;100517.13;5053432;28;20032;-65
2022/09/14 09:43:04;;;;;;;11.70;4.03;;;;;;;20.87;58.02;100509.13;5053106;28;20033;-65
2022/09/14 09:45:57;;;;;;;7.90;3.63;;;;;;;20.82;58.03;100509.66;5072332;28;20097;-65
2022/09/14 09:48:29;;;;;;;8.98;3.55;;;;;;;20.81;57.92;100507.13;5072442;28;20094;-65
2022/09/14 09:51:05;;;;;;;8.10;3.45;;;;;;;20.82;58.03;100504.22;5071380;28;20040;-65
2022/09/14 09:53:44;;;;;;;7.22;3.53;;;;;;;20.84;58.25;100510.31;5071023;28;20082;-65
2022/09/14 09:56:23;;;;;;;7.50;3.75;;;;;;;20.87;58.29;100507.22;5072112;28;20359;-65
2022/09/14 09:58:50;;;;;;;6.93;3.80;;;;;;;20.90;57.91;100506.00;5086675;28;20040;-65
2022/09/14 10:01:34;;;;;;;10.30;4.28;;;;;;;20.90;58.13;100498.69;5090161;28;20444;-65
2022/09/14 10:04:19;;;;;;;8.13;3.70;;;;;;;20.87;58.00;100495.47;5072758;28;20036;-66
2022/09/14 10:06:48;;;;;;;7.97;4.70;;;;;;;20.86;58.23;100488.31;5070887;28;20459;-66
2022/09/14 10:09:20;;;;;;;10.27;4.25;;;;;;;20.86;58.09;100489.16;5071196;28;20330;-66
2022/09/14 10:11:56;;;;;;;8.38;3.70;;;;;;;20.89;58.07;100493.41;5070895;28;20040;-65
2022/09/14 10:14:30;;;;;;;8.52;4.00;;;;;;;20.92;58.21;100491.16;5089147;28;20070;-66
2022/09/14 10:17:13;;;;;;;8.80;4.90;;;;;;;20.94;58.42;100486.34;5077489;28;20042;-66
2022/09/14 10:19:46;;;;;;;7.60;5.28;;;;;;;20.98;58.24;100484.09;5075289;28;20094;-66
2022/09/14 10:22:29;;;;;;;11.30;5.45;;;;;;;21.01;58.68;100474.69;5070030;28;20094;-66
2022/09/14 10:24:57;;;;;;;7.90;4.50;;;;;;;21.05;58.81;100468.66;5052760;28;20041;-66
2022/09/14 10:27:38;;;;;;;6.85;4.90;;;;;;;21.11;58.85;100467.06;5070704;28;20383;-66
2022/09/14 10:30:11;;;;;;;8.52;4.20;;;;;;;21.14;58.71;100466.72;5070948;28;20070;-65
2022/09/14 10:32:41;;;;;;;10.32;4.25;;;;;;;21.14;58.81;100466.72;5071774;28;20106;-66
2022/09/14 10:35:14;;;;;;;10.93;4.13;;;;;;;21.13;58.49;100465.84;5070390;28;20109;-66
2022/09/14 10:38:14;;;;;;;10.57;5.22;;;;;;;21.11;58.17;100475.28;5070076;28;20055;-65
2022/09/14 10:40:44;;;;;;;7.68;4.47;;;;;;;21.11;58.37;100476.13;5070879;28;20094;-65
2022/09/14 10:43:52;;;;;;;10.05;4.38;;;;;;;21.16;58.65;100473.69;5072915;28;20044;-66
2022/09/14 10:46:29;;;;;;;7.93;4.60;;;;;;;21.26;58.43;100470.69;5074001;28;20045;-65
2022/09/14 10:49:02;;;;;;;8.48;4.40;;;;;;;21.28;58.40;100476.81;5092071;28;20044;-65
2022/09/14 10:51:47;;;;;;;7.32;4.13;;;;;;;21.33;58.07;100481.72;5075992;28;20032;-66
2022/09/14 10:54:30;;;;;;;5.40;3.97;;;;;;;21.33;57.98;100482.56;5074433;28;20041;-66
2022/09/14 10:57:21;;;;;;;9.27;3.97;;;;;;;21.35;58.11;100479.66;5074336;28;20036;-66
2022/09/14 11:00:13;;;;;;;6.90;3.90;;;;;;;21.26;57.72;100484.34;5074494;28;20037;-65
2022/09/14 11:03:32;;;;;;;5.70;3.53;;;;;;;21.27;57.82;100488.78;5074404;28;20041;-65
2022/09/14 11:06:13;;;;;;;8.13;4.80;;;;;;;21.31;57.98;100484.66;5009709;28;20071;-65
2022/09/14 11:08:59;;;;;;;5.95;4.22;;;;;;;21.34;57.95;100477.97;5074656;28;20044;-65
2022/09/14 11:11:36;;;;;;;8.95;4.38;;;;;;;21.35;58.04;100475.03;5074534;28;20448;-65
2022/09/14 11:14:12;;;;;;;6.85;3.70;;;;;;;21.34;57.89;100483.41;5074215;28;20082;-65
2022/09/14 11:16:46;;;;;;;5.88;3.70;;;;;;;21.32;57.84;100475.41;5059878;28;20467;-65
2022/09/14 11:19:47;;;;;;;6.78;4.30;;;;;;;21.32;58.14;100482.75;5074586;28;20154;-65
2022/09/14 11:22:41;;;;;;;4.90;3.40;;;;;;;21.32;57.79;100475.41;5073867;28;20041;-65
2022/09/14 11:25:15;;;;;;;6.13;3.20;;;;;;;21.33;57.72;100479.84;5084758;28;20089;-65
2022/09/14 11:27:47;;;;;;;6.00;3.85;;;;;;;21.35;57.91;100472.31;5083557;28;20254;-66
2022/09/14 11:30:18;;;;;;;7.20;3.42;;;;;;;21.33;57.32;100474.38;5082981;28;20433;-65
2022/09/14 11:32:56;;;;;;;5.03;4.10;;;;;;;21.31;57.58;100473.72;5082825;28;20036;-65
2022/09/14 11:35:33;;;;;;;6.00;3.65;;;;;;;21.31;57.50;100471.00;5079700;28;20090;-65
2022/09/14 11:38:11;;;;;;;5.20;3.45;;;;;;;21.31;57.76;100476.44;5093899;28;20052;-65
2022/09/14 11:41:04;;;;;;;5.38;3.38;;;;;;;21.29;57.68;100473.06;5094218;28;20089;-65
2022/09/14 11:43:49;;;;;;;7.80;3.47;;;;;;;21.28;57.28;100473.25;5079804;28;20056;-66
2022/09/14 11:46:33;;;;;;;6.85;2.95;;;;;;;21.26;57.27;100467.97;5093636;28;20032;-64
2022/09/14 11:49:08;;;;;;;4.28;2.85;;;;;;;21.24;57.21;100468.16;5094064;28;20544;-65
2022/09/14 11:51:45;;;;;;;5.57;2.90;;;;;;;21.24;57.59;100467.31;5074694;28;20615;-65
2022/09/14 11:54:19;;;;;;;5.72;3.58;;;;;;;21.25;57.54;100469.00;5072478;28;20109;-64
2022/09/14 11:56:48;;;;;;;6.60;3.90;;;;;;;21.24;57.37;100468.16;5073207;28;20090;-64